Time;durP1;ratioP1;P1;durP2;ratioP2;P2;SDS_P1;SDS_P2;PMS_P1;PMS_P2;Temp;Humidity;BMP_temperature;BMP_pressure;BME280_temperature;BME280_humidity;BME280_pressure;Samples;Min_cycle;Max_cycle;Signal;HPM_P1;HPM_P2
2023/06/22 00:01:53;;;;;;;9.70;8.73;;;22.00;99.90;;;;;;5026249;28;20045;-82
2023/06/22 00:04:19;;;;;;;10.20;8.85;;;21.90;99.90;;;;;;5019145;28;20747;-81
2023/06/22 00:06:45;;;;;;;12.90;9.43;;;21.90;99.90;;;;;;5023365;28;20135;-80
2023/06/22 00:09:10;;;;;;;17.52;8.93;;;21.80;99.90;;;;;;5027313;28;20045;-82
2023/06/22 00:11:37;;;;;;;9.60;8.70;;;21.80;99.90;;;;;;5047113;28;20470;-82
2023/06/22 00:14:03;;;;;;;11.55;9.98;;;21.80;99.90;;;;;;5037361;28;20080;-81
2023/06/22 00:16:29;;;;;;;10.85;9.73;;;21.70;99.90;;;;;;5034604;28;20044;-82
2023/06/22 00:18:55;;;;;;;9.98;8.98;;;21.70;99.90;;;;;;5007622;28;20049;-82
2023/06/22 00:21:20;;;;;;;11.02;9.50;;;21.70;99.90;;;;;;5048365;28;20055;-82
2023/06/22 00:23:47;;;;;;;12.63;9.90;;;21.60;99.90;;;;;;5027465;28;20458;-80
2023/06/22 00:26:13;;;;;;;10.13;8.93;;;21.60;99.90;;;;;;5006843;28;20461;-81
2023/06/22 00:28:39;;;;;;;10.55;9.45;;;21.60;99.90;;;;;;5034211;28;20044;-81
2023/06/22 00:31:08;;;;;;;11.52;10.18;;;21.50;99.90;;;;;;5032631;28;20045;-81
2023/06/22 00:33:34;;;;;;;11.60;10.40;;;21.50;99.90;;;;;;5044722;28;20041;-80
2023/06/22 00:35:59;;;;;;;11.68;10.48;;;21.50;99.90;;;;;;5048316;28;20409;-80
2023/06/22 00:38:25;;;;;;;11.30;9.88;;;21.40;99.90;;;;;;5028783;28;20073;-81
2023/06/22 00:40:51;;;;;;;10.15;9.15;;;21.40;99.90;;;;;;5007322;28;20056;-81
2023/06/22 00:43:17;;;;;;;12.65;10.18;;;21.40;99.90;;;;;;5053512;28;20039;-81
2023/06/22 00:45:43;;;;;;;12.00;10.75;;;21.30;99.90;;;;;;5032016;28;20132;-80
2023/06/22 00:48:09;;;;;;;14.40;10.30;;;21.30;99.90;;;;;;5026432;28;20079;-80
2023/06/22 00:50:35;;;;;;;11.27;10.07;;;21.20;99.90;;;;;;5033327;28;20106;-80
2023/06/22 00:53:07;;;;;;;9.90;8.90;;;21.10;99.90;;;;;;5024882;28;20045;-80
2023/06/22 00:55:38;;;;;;;11.07;9.95;;;21.10;99.90;;;;;;5019397;28;20622;-81
2023/06/22 00:58:07;;;;;;;13.35;10.75;;;21.10;99.90;;;;;;5043302;28;20693;-81
2023/06/22 01:00:33;;;;;;;11.73;10.50;;;21.10;99.90;;;;;;5025172;28;20045;-81
2023/06/22 01:02:59;;;;;;;12.20;10.93;;;21.10;99.90;;;;;;5030290;28;20876;-80
2023/06/22 01:05:25;;;;;;;11.13;9.88;;;21.10;99.90;;;;;;5036099;28;20053;-81
2023/06/22 01:08:28;;;;;;;11.20;9.95;;;20.90;99.90;;;;;;5035670;28;20107;-80
2023/06/22 01:10:59;;;;;;;11.73;10.32;;;20.90;99.90;;;;;;5047793;28;20041;-80
2023/06/22 01:13:38;;;;;;;13.13;10.50;;;20.90;99.90;;;;;;5017641;28;20049;-80
2023/06/22 01:16:08;;;;;;;11.27;10.07;;;20.80;99.90;;;;;;5022829;28;20611;-81
2023/06/22 01:18:36;;;;;;;13.48;10.30;;;20.80;99.90;;;;;;5017390;28;20105;-80
2023/06/22 01:21:07;;;;;;;12.00;10.80;;;20.80;99.90;;;;;;5014270;28;20037;-80
2023/06/22 01:23:58;;;;;;;12.18;10.43;;;20.80;99.90;;;;;;5025320;28;20037;-80
2023/06/22 01:26:46;;;;;;;11.65;10.50;;;20.70;99.90;;;;;;5018619;28;20084;-81
2023/06/22 01:29:13;;;;;;;10.67;9.57;;;20.60;99.90;;;;;;5017086;28;20041;-79
2023/06/22 01:31:39;;;;;;;11.88;9.80;;;20.60;99.90;;;;;;5031406;28;20290;-79
2023/06/22 01:34:06;;;;;;;13.25;10.35;;;20.60;99.90;;;;;;5011237;28;20049;-80
2023/06/22 01:36:32;;;;;;;11.57;10.20;;;20.60;99.90;;;;;;5044368;28;20129;-80
2023/06/22 01:38:58;;;;;;;11.30;9.90;;;20.60;99.90;;;;;;5014037;28;20048;-80
2023/06/22 01:41:25;;;;;;;11.70;10.40;;;20.50;99.90;;;;;;5029166;28;20366;-80
2023/06/22 01:43:51;;;;;;;11.15;10.05;;;20.50;99.90;;;;;;5048673;28;20059;-80
2023/06/22 01:46:19;;;;;;;12.60;10.73;;;20.50;99.90;;;;;;5042879;28;20054;-80
2023/06/22 01:48:45;;;;;;;12.90;11.00;;;20.50;99.90;;;;;;5032203;28;20508;-80
2023/06/22 01:51:10;;;;;;;11.00;9.20;;;20.50;99.90;;;;;;4996443;28;20050;-79
2023/06/22 01:53:36;;;;;;;12.43;10.40;;;20.50;99.90;;;;;;5016820;28;20132;-79
2023/06/22 01:56:02;;;;;;;12.93;11.00;;;20.40;99.90;;;;;;5037004;28;20530;-79
2023/06/22 01:58:29;;;;;;;15.98;10.82;;;20.40;99.90;;;;;;5021251;28;20033;-80
2023/06/22 02:01:12;;;;;;;11.35;10.15;;;20.30;99.90;;;;;;5039841;28;20064;-79
2023/06/22 02:03:43;;;;;;;11.90;10.55;;;20.20;99.90;;;;;;5055785;28;20044;-80
2023/06/22 02:06:17;;;;;;;12.45;10.25;;;20.20;99.90;;;;;;5051029;28;20042;-79
2023/06/22 02:08:55;;;;;;;11.25;10.07;;;20.20;99.90;;;;;;5050044;28;20094;-79
2023/06/22 02:11:21;;;;;;;11.43;10.23;;;20.20;99.90;;;;;;5032203;28;20045;-79
2023/06/22 02:13:47;;;;;;;10.80;9.57;;;20.20;99.90;;;;;;5050500;28;20048;-80
2023/06/22 02:16:12;;;;;;;12.70;11.27;;;20.20;99.90;;;;;;5025472;28;20759;-80
2023/06/22 02:18:40;;;;;;;11.40;10.18;;;20.20;99.90;;;;;;5041475;28;20063;-79
2023/06/22 02:21:06;;;;;;;11.27;10.07;;;20.20;99.90;;;;;;5033426;28;20148;-79
2023/06/22 02:23:35;;;;;;;13.13;10.27;;;20.10;99.90;;;;;;5054825;28;20037;-80
2023/06/22 02:26:02;;;;;;;10.98;9.63;;;20.10;99.90;;;;;;5054860;28;20037;-79
2023/06/22 02:28:29;;;;;;;11.98;10.70;;;20.10;99.90;;;;;;5003995;28;20050;-80
2023/06/22 02:30:54;;;;;;;12.18;9.48;;;20.10;99.90;;;;;;5056244;28;20063;-79
2023/06/22 02:33:21;;;;;;;11.75;10.02;;;20.00;99.90;;;;;;5033325;28;20132;-80
2023/06/22 02:35:48;;;;;;;13.70;10.38;;;20.00;99.90;;;;;;5020437;28;20099;-79
2023/06/22 02:38:17;;;;;;;11.52;10.35;;;20.10;99.90;;;;;;5027207;28;20103;-80
2023/06/22 02:40:43;;;;;;;10.93;9.70;;;20.00;99.90;;;;;;5039791;28;20450;-79
2023/06/22 02:43:08;;;;;;;11.18;9.93;;;20.00;99.90;;;;;;5022808;28;20037;-80
2023/06/22 02:45:34;;;;;;;11.63;10.07;;;20.00;99.90;;;;;;5032183;28;20785;-80
2023/06/22 02:48:00;;;;;;;13.77;10.40;;;20.00;99.90;;;;;;5010215;28;20120;-80
2023/06/22 02:50:26;;;;;;;11.82;10.02;;;20.00;99.90;;;;;;5038252;28;20110;-80
2023/06/22 02:52:52;;;;;;;11.10;9.60;;;20.00;99.90;;;;;;5026155;28;20586;-80
2023/06/22 02:55:18;;;;;;;10.73;9.32;;;19.90;99.90;;;;;;5047166;28;20454;-80
2023/06/22 02:57:45;;;;;;;12.13;9.60;;;20.00;99.90;;;;;;5020123;28;20037;-79
2023/06/22 03:00:16;;;;;;;12.75;9.85;;;19.90;99.90;;;;;;5042636;28;20112;-79
2023/06/22 03:02:46;;;;;;;10.45;9.40;;;19.90;99.90;;;;;;5037638;28;20133;-80
2023/06/22 03:05:13;;;;;;;12.52;9.82;;;19.90;99.90;;;;;;5044280;28;20049;-80
2023/06/22 03:07:43;;;;;;;10.75;9.38;;;19.90;99.90;;;;;;5036394;28;20033;-80
2023/06/22 03:10:09;;;;;;;13.52;9.93;;;19.90;99.90;;;;;;5021001;28;20041;-79
2023/06/22 03:12:35;;;;;;;12.02;9.00;;;19.90;99.90;;;;;;5034603;28;20063;-80
2023/06/22 03:15:02;;;;;;;14.73;9.80;;;19.90;99.90;;;;;;5035605;28;20049;-80
2023/06/22 03:17:28;;;;;;;10.45;9.07;;;19.90;99.90;;;;;;5019197;28;20037;-81
2023/06/22 03:19:54;;;;;;;14.30;9.95;;;19.80;99.90;;;;;;5047057;28;20052;-81
2023/06/22 03:22:19;;;;;;;11.13;9.57;;;19.90;99.90;;;;;;5013371;28;20033;-81
2023/06/22 03:24:45;;;;;;;10.98;9.57;;;19.80;99.90;;;;;;5051088;28;20052;-80
2023/06/22 03:27:11;;;;;;;14.68;9.57;;;19.80;99.90;;;;;;5048910;28;20060;-80
2023/06/22 03:29:36;;;;;;;11.38;9.48;;;19.80;99.90;;;;;;4987169;28;20661;-80
2023/06/22 03:32:04;;;;;;;12.95;9.98;;;19.80;99.90;;;;;;5039042;28;20135;-80
2023/06/22 03:34:33;;;;;;;13.75;9.93;;;19.80;99.90;;;;;;5016366;28;20176;-80
2023/06/22 03:36:59;;;;;;;11.63;9.25;;;19.80;99.90;;;;;;5050823;28;20041;-80
2023/06/22 03:39:24;;;;;;;12.65;10.27;;;19.80;99.90;;;;;;5017222;28;20050;-80
2023/06/22 03:41:50;;;;;;;11.32;10.05;;;19.80;99.90;;;;;;5054335;28;20106;-80
2023/06/22 03:44:16;;;;;;;12.02;9.80;;;19.70;99.90;;;;;;5019754;28;20041;-80
2023/06/22 03:46:42;;;;;;;12.15;9.27;;;19.70;99.90;;;;;;5055940;28;20053;-81
2023/06/22 03:49:08;;;;;;;11.70;9.13;;;19.70;99.90;;;;;;5019349;28;20452;-81
2023/06/22 03:51:33;;;;;;;13.40;9.60;;;19.80;99.90;;;;;;5036902;28;20081;-82
2023/06/22 03:53:59;;;;;;;11.77;9.05;;;19.80;99.90;;;;;;5007869;28;20124;-82
2023/06/22 03:56:25;;;;;;;11.30;9.50;;;19.90;99.90;;;;;;5033080;28;20145;-81
2023/06/22 03:58:51;;;;;;;14.35;9.05;;;19.80;99.90;;;;;;5047405;28;20072;-81
2023/06/22 04:01:17;;;;;;;10.73;9.63;;;19.80;99.90;;;;;;5050344;28;20064;-80
2023/06/22 04:03:43;;;;;;;10.27;9.27;;;19.80;99.90;;;;;;5033589;28;20048;-80
2023/06/22 04:06:09;;;;;;;10.02;8.73;;;19.90;99.90;;;;;;5024261;28;20108;-79
2023/06/22 04:08:34;;;;;;;11.30;9.27;;;19.90;99.90;;;;;;5003562;28;20083;-79
2023/06/22 04:11:00;;;;;;;12.30;8.95;;;19.90;99.90;;;;;;5045044;28;20065;-79
2023/06/22 04:13:26;;;;;;;11.30;9.70;;;19.90;99.90;;;;;;5032507;28;20528;-80
2023/06/22 04:15:52;;;;;;;13.77;9.48;;;19.90;99.90;;;;;;5039156;28;20052;-80
2023/06/22 04:18:17;;;;;;;10.05;8.15;;;20.00;99.90;;;;;;5017967;28;20098;-81
2023/06/22 04:20:46;;;;;;;13.82;9.27;;;20.00;99.90;;;;;;5011586;28;20107;-80
2023/06/22 04:23:12;;;;;;;12.23;8.75;;;20.10;99.90;;;;;;5032895;28;20761;-80
2023/06/22 04:25:39;;;;;;;9.50;8.45;;;20.10;99.90;;;;;;5004474;28;20045;-80
2023/06/22 04:28:05;;;;;;;10.90;8.73;;;20.10;99.90;;;;;;5020718;28;20060;-81
2023/06/22 04:30:32;;;;;;;11.27;8.45;;;20.10;99.90;;;;;;5013147;28;20041;-81
2023/06/22 04:32:58;;;;;;;12.32;8.20;;;20.10;99.90;;;;;;5009825;28;20076;-80
2023/06/22 04:35:24;;;;;;;9.25;7.70;;;20.20;99.90;;;;;;5029575;28;20365;-77
2023/06/22 04:37:54;;;;;;;14.40;8.43;;;20.20;99.90;;;;;;5029444;28;20045;-78
2023/06/22 04:40:21;;;;;;;9.77;7.85;;;20.20;99.90;;;;;;5046683;28;20468;-80
2023/06/22 04:42:52;;;;;;;10.50;7.93;;;20.30;99.90;;;;;;5045239;28;20051;-81
2023/06/22 04:45:18;;;;;;;10.25;7.85;;;20.30;99.90;;;;;;5034509;28;20083;-77
2023/06/22 04:47:45;;;;;;;10.65;8.10;;;20.30;99.90;;;;;;5019244;28;20048;-78
2023/06/22 04:50:12;;;;;;;13.43;7.85;;;20.40;99.90;;;;;;5032152;28;20412;-78
2023/06/22 04:52:38;;;;;;;13.77;7.90;;;20.40;99.90;;;;;;5018087;28;20854;-78
2023/06/22 04:55:04;;;;;;;10.15;7.65;;;20.40;99.90;;;;;;5033872;28;20060;-78
2023/06/22 04:57:32;;;;;;;10.15;7.40;;;20.50;99.90;;;;;;5010587;28;20037;-78
2023/06/22 05:00:11;;;;;;;11.07;8.15;;;20.50;99.90;;;;;;5025648;28;20041;-76
2023/06/22 05:02:37;;;;;;;9.82;7.47;;;20.50;99.90;;;;;;5037214;28;20055;-76
2023/06/22 05:05:06;;;;;;;8.18;7.13;;;20.50;99.90;;;;;;5040878;28;20464;-76
2023/06/22 05:07:34;;;;;;;10.75;7.68;;;20.60;99.90;;;;;;5003205;28;20041;-76
2023/06/22 05:10:01;;;;;;;10.18;7.07;;;20.60;99.90;;;;;;5031295;28;20037;-76
2023/06/22 05:12:28;;;;;;;10.20;7.80;;;20.60;99.90;;;;;;5042465;28;20040;-75
2023/06/22 05:14:54;;;;;;;10.67;7.70;;;20.60;99.90;;;;;;5052113;28;20052;-76
2023/06/22 05:17:20;;;;;;;10.18;7.43;;;20.70;99.90;;;;;;5042414;28;20359;-76
2023/06/22 05:19:48;;;;;;;13.13;7.63;;;20.70;99.90;;;;;;5022032;28;20051;-76
2023/06/22 05:22:17;;;;;;;9.50;7.47;;;20.80;99.90;;;;;;5047426;28;20056;-76
2023/06/22 05:24:43;;;;;;;11.40;7.63;;;20.80;99.90;;;;;;5046155;28;20176;-76
2023/06/22 05:27:09;;;;;;;12.20;7.75;;;20.80;99.90;;;;;;5019587;28;20042;-76
2023/06/22 05:29:35;;;;;;;8.77;6.85;;;20.90;99.90;;;;;;5042027;28;20048;-76
2023/06/22 05:32:01;;;;;;;10.10;7.15;;;20.90;99.90;;;;;;5042061;28;20052;-76
2023/06/22 05:34:27;;;;;;;10.90;7.20;;;20.90;99.90;;;;;;5006592;28;20103;-76
2023/06/22 05:36:53;;;;;;;9.90;7.35;;;21.00;99.90;;;;;;5034187;28;20044;-76
2023/06/22 05:39:18;;;;;;;9.98;6.55;;;21.00;99.90;;;;;;5031018;28;20037;-76
2023/06/22 05:41:45;;;;;;;7.95;6.38;;;21.00;99.90;;;;;;5027869;28;20156;-76
2023/06/22 05:44:11;;;;;;;8.10;6.22;;;21.10;99.90;;;;;;5027882;28;20121;-76
2023/06/22 05:46:36;;;;;;;6.88;5.85;;;21.10;99.90;;;;;;5013409;28;20456;-75
2023/06/22 05:49:05;;;;;;;8.77;6.50;;;21.10;99.90;;;;;;5016527;28;20085;-77
2023/06/22 05:51:31;;;;;;;11.18;6.40;;;21.10;99.90;;;;;;5031641;28;20130;-76
2023/06/22 05:53:56;;;;;;;7.97;5.80;;;21.20;99.90;;;;;;5051254;28;20430;-76
2023/06/22 05:56:22;;;;;;;12.05;6.00;;;21.30;99.90;;;;;;5037827;28;20045;-76
2023/06/22 05:58:48;;;;;;;10.55;5.63;;;21.30;99.90;;;;;;5071466;28;20047;-76
2023/06/22 06:01:15;;;;;;;8.60;5.53;;;21.30;99.90;;;;;;5044205;28;20032;-76
2023/06/22 06:03:41;;;;;;;7.68;5.40;;;21.40;99.90;;;;;;5035813;28;20057;-76
2023/06/22 06:06:10;;;;;;;7.40;5.18;;;21.40;99.90;;;;;;5044320;28;20037;-76
2023/06/22 06:08:37;;;;;;;7.30;5.22;;;21.40;99.90;;;;;;5038825;28;20053;-76
2023/06/22 06:11:03;;;;;;;8.85;5.80;;;21.50;99.90;;;;;;5038628;28;20049;-75
2023/06/22 06:13:28;;;;;;;9.35;5.55;;;21.50;99.90;;;;;;5005063;28;20048;-77
2023/06/22 06:15:56;;;;;;;10.70;5.72;;;21.60;99.90;;;;;;5038129;28;20059;-77
2023/06/22 06:18:25;;;;;;;6.22;5.18;;;21.60;99.90;;;;;;5023887;28;20045;-77
2023/06/22 06:20:51;;;;;;;7.22;5.07;;;21.70;99.90;;;;;;5045611;28;20051;-76
2023/06/22 06:23:17;;;;;;;8.75;5.45;;;21.70;99.90;;;;;;5037210;28;20037;-77
2023/06/22 06:25:43;;;;;;;8.63;5.05;;;21.70;99.90;;;;;;5049837;28;20045;-76
2023/06/22 06:28:08;;;;;;;10.70;5.18;;;21.80;99.90;;;;;;5038387;28;20411;-76
2023/06/22 06:30:36;;;;;;;9.15;5.55;;;21.80;99.90;;;;;;5024652;28;20124;-76
2023/06/22 06:33:08;;;;;;;10.05;5.35;;;21.80;99.90;;;;;;5023783;28;20048;-78
2023/06/22 06:35:34;;;;;;;9.10;5.68;;;21.80;99.90;;;;;;5030497;28;20049;-78
2023/06/22 06:38:00;;;;;;;11.10;6.07;;;21.90;99.90;;;;;;5029113;28;20480;-78
2023/06/22 06:40:26;;;;;;;13.27;5.88;;;21.90;99.90;;;;;;5036965;28;20091;-79
2023/06/22 06:42:52;;;;;;;10.98;6.63;;;22.00;99.90;;;;;;5031609;28;20060;-79
2023/06/22 06:45:25;;;;;;;10.43;6.35;;;22.00;99.90;;;;;;5021982;28;20579;-77
2023/06/22 06:47:51;;;;;;;10.25;6.30;;;22.00;99.90;;;;;;5023762;28;20049;-78
2023/06/22 06:50:17;;;;;;;12.98;6.88;;;22.00;99.90;;;;;;5032821;28;20134;-78
2023/06/22 06:52:43;;;;;;;9.90;5.82;;;22.10;99.90;;;;;;5006528;28;20133;-78
2023/06/22 06:55:12;;;;;;;8.82;6.30;;;22.10;99.90;;;;;;5027088;28;20115;-78
2023/06/22 06:57:39;;;;;;;8.00;5.70;;;22.10;99.90;;;;;;5010109;28;20037;-78
2023/06/22 07:00:11;;;;;;;10.45;6.00;;;22.20;99.90;;;;;;5015433;28;20044;-78
2023/06/22 07:02:48;;;;;;;12.43;6.43;;;22.20;99.90;;;;;;5027906;28;20128;-78
2023/06/22 07:05:14;;;;;;;9.00;5.82;;;22.20;99.90;;;;;;5039952;28;20251;-78
2023/06/22 07:07:41;;;;;;;9.93;5.93;;;22.30;99.90;;;;;;5026833;28;20669;-78
2023/06/22 07:10:07;;;;;;;8.73;6.18;;;22.30;99.90;;;;;;5042324;28;20076;-79
2023/06/22 07:12:33;;;;;;;7.63;6.30;;;22.30;99.90;;;;;;5002413;28;20052;-79
2023/06/22 07:15:09;;;;;;;11.95;6.60;;;22.30;99.90;;;;;;5040239;28;20059;-79
2023/06/22 07:17:40;;;;;;;7.90;6.68;;;22.40;99.90;;;;;;5028584;28;20469;-79
2023/06/22 07:20:10;;;;;;;9.90;6.70;;;22.40;99.90;;;;;;5025992;28;20053;-79
2023/06/22 07:22:36;;;;;;;10.88;6.90;;;22.40;99.90;;;;;;5011390;28;20053;-79
2023/06/22 07:25:08;;;;;;;8.85;6.50;;;22.50;99.90;;;;;;5035774;28;20053;-79
2023/06/22 07:27:39;;;;;;;11.75;7.25;;;22.50;99.90;;;;;;5037058;28;20041;-79
2023/06/22 07:30:06;;;;;;;11.45;8.07;;;22.60;99.90;;;;;;5025936;28;20075;-79
2023/06/22 07:32:32;;;;;;;8.50;7.38;;;22.60;99.90;;;;;;5009261;28;20050;-78
2023/06/22 07:34:57;;;;;;;9.98;7.95;;;22.70;99.90;;;;;;4986857;28;20115;-78
2023/06/22 07:37:23;;;;;;;8.52;7.53;;;22.70;99.90;;;;;;5020828;28;20462;-78
2023/06/22 07:39:53;;;;;;;9.68;8.27;;;22.70;99.90;;;;;;5024202;28;20077;-78
2023/06/22 07:42:19;;;;;;;10.82;7.88;;;22.80;99.90;;;;;;5046396;28;20093;-78
2023/06/22 07:44:45;;;;;;;10.95;8.13;;;22.80;99.90;;;;;;5025459;28;20445;-78
2023/06/22 07:47:10;;;;;;;11.02;8.20;;;22.90;99.90;;;;;;4996529;28;20046;-78
2023/06/22 07:49:36;;;;;;;10.75;8.00;;;22.90;99.90;;;;;;5022792;28;20374;-77
2023/06/22 07:52:02;;;;;;;10.68;7.55;;;23.00;99.90;;;;;;5022831;28;20133;-77
2023/06/22 07:54:28;;;;;;;12.23;9.00;;;23.00;99.90;;;;;;5036367;28;20049;-78
2023/06/22 07:56:54;;;;;;;12.65;8.77;;;23.10;99.90;;;;;;5001630;28;20394;-77
2023/06/22 07:59:19;;;;;;;12.45;8.65;;;23.20;99.90;;;;;;5022664;28;20079;-78
2023/06/22 08:01:45;;;;;;;15.18;9.55;;;23.20;99.90;;;;;;5043082;28;20045;-78
2023/06/22 08:04:11;;;;;;;12.15;7.90;;;23.30;99.90;;;;;;4989725;28;20366;-78
2023/06/22 08:06:37;;;;;;;13.77;8.70;;;23.30;99.90;;;;;;5036897;28;20112;-77
2023/06/22 08:09:03;;;;;;;14.90;8.35;;;23.40;99.90;;;;;;5022197;28;20079;-77
2023/06/22 08:11:29;;;;;;;12.60;9.95;;;23.40;99.90;;;;;;5023726;28;20041;-77
2023/06/22 08:13:55;;;;;;;10.40;8.88;;;23.40;99.90;;;;;;5017961;28;20052;-79
2023/06/22 08:16:21;;;;;;;13.05;9.55;;;23.50;99.90;;;;;;5020087;28;20355;-79
2023/06/22 08:18:47;;;;;;;12.45;9.15;;;23.60;99.90;;;;;;5039348;28;20045;-77
2023/06/22 08:21:13;;;;;;;14.55;9.90;;;23.70;99.90;;;;;;5007360;28;20481;-77
2023/06/22 08:23:39;;;;;;;16.95;10.88;;;23.70;99.90;;;;;;5023294;28;20045;-78
2023/06/22 08:26:04;;;;;;;13.60;9.95;;;23.60;99.90;;;;;;5013561;28;20176;-79
2023/06/22 08:28:31;;;;;;;12.35;10.35;;;23.60;99.90;;;;;;5010917;28;20045;-77
2023/06/22 08:30:56;;;;;;;10.50;8.65;;;23.60;99.90;;;;;;5000963;28;20470;-78
2023/06/22 08:33:28;;;;;;;12.45;10.07;;;23.70;99.90;;;;;;5035156;28;20474;-78
2023/06/22 08:35:58;;;;;;;10.60;9.15;;;23.80;99.90;;;;;;5046470;28;20109;-78
2023/06/22 08:38:24;;;;;;;11.82;9.52;;;23.80;99.90;;;;;;5030228;28;20131;-78
2023/06/22 08:40:50;;;;;;;12.32;9.18;;;23.80;99.90;;;;;;5002202;28;20045;-78
2023/06/22 08:43:15;;;;;;;8.95;8.05;;;23.90;99.90;;;;;;5016951;28;20048;-78
2023/06/22 08:45:41;;;;;;;11.93;10.15;;;23.90;99.90;;;;;;5017544;28;20065;-78
2023/06/22 08:48:07;;;;;;;11.98;8.98;;;23.90;99.90;;;;;;5004507;28;20049;-78
2023/06/22 08:50:33;;;;;;;14.05;10.27;;;24.00;99.90;;;;;;5022302;28;20425;-78
2023/06/22 08:52:58;;;;;;;11.77;9.07;;;24.00;99.90;;;;;;5015645;28;20372;-79
2023/06/22 08:55:24;;;;;;;13.45;9.85;;;24.10;99.90;;;;;;5010650;28;20462;-78
2023/06/22 08:57:50;;;;;;;12.65;9.93;;;24.10;99.90;;;;;;5019904;28;20041;-78
2023/06/22 09:00:20;;;;;;;11.52;9.70;;;24.10;99.90;;;;;;5008280;28;20052;-78
2023/06/22 09:02:49;;;;;;;13.23;9.13;;;24.20;99.90;;;;;;5042365;28;20045;-78
2023/06/22 09:05:14;;;;;;;12.38;10.43;;;24.30;99.90;;;;;;5012851;28;20045;-77
2023/06/22 09:07:40;;;;;;;11.20;10.07;;;24.30;99.90;;;;;;5004259;28;20369;-78
2023/06/22 09:10:06;;;;;;;12.25;10.95;;;24.40;99.90;;;;;;5022672;28;20602;-78
2023/06/22 09:12:32;;;;;;;13.32;10.73;;;24.30;99.90;;;;;;5016189;28;20163;-78
2023/06/22 09:15:00;;;;;;;12.60;10.20;;;24.30;99.90;;;;;;5002546;28;20490;-78
2023/06/22 09:17:26;;;;;;;15.60;10.52;;;24.30;99.90;;;;;;5017872;28;20390;-78
2023/06/22 09:19:52;;;;;;;12.27;11.02;;;24.40;99.90;;;;;;5023968;28;20096;-79
2023/06/22 09:22:18;;;;;;;13.48;10.73;;;24.40;99.90;;;;;;5000458;28;20099;-78
2023/06/22 09:24:43;;;;;;;13.55;11.63;;;24.40;99.90;;;;;;5022609;28;20416;-79
2023/06/22 09:27:09;;;;;;;13.55;10.23;;;24.50;99.90;;;;;;5020776;28;20111;-79
2023/06/22 09:29:35;;;;;;;11.85;10.52;;;24.50;99.90;;;;;;5043261;28;20091;-79
2023/06/22 09:32:01;;;;;;;13.52;10.55;;;24.60;99.90;;;;;;5037512;28;20171;-79
2023/06/22 09:34:27;;;;;;;14.73;9.95;;;24.60;99.90;;;;;;5023131;28;20049;-78
2023/06/22 09:36:53;;;;;;;11.00;9.73;;;24.70;99.90;;;;;;5001559;28;20089;-78
2023/06/22 09:39:18;;;;;;;11.85;10.40;;;24.70;99.90;;;;;;5000553;28;20045;-78
2023/06/22 09:41:46;;;;;;;12.75;11.48;;;24.80;99.90;;;;;;5039527;28;20040;-78
2023/06/22 09:44:12;;;;;;;11.73;9.85;;;24.90;99.90;;;;;;5021816;28;20068;-78
2023/06/22 09:46:37;;;;;;;12.50;10.93;;;25.00;99.90;;;;;;5010016;28;20742;-78
2023/06/22 09:49:03;;;;;;;12.75;10.05;;;25.10;99.90;;;;;;5045309;28;20474;-77
2023/06/22 09:51:29;;;;;;;13.35;10.27;;;25.20;99.90;;;;;;5027473;28;20042;-77
2023/06/22 09:53:55;;;;;;;11.25;10.07;;;25.30;99.90;;;;;;5034937;28;20048;-78
2023/06/22 09:56:21;;;;;;;13.05;11.60;;;25.30;99.90;;;;;;5032922;28;20064;-78
2023/06/22 09:58:47;;;;;;;20.40;11.40;;;25.40;99.90;;;;;;5022688;28;20110;-78
2023/06/22 10:01:14;;;;;;;11.98;10.77;;;25.40;99.90;;;;;;5025680;28;20052;-77
2023/06/22 10:03:41;;;;;;;13.35;10.18;;;25.40;99.90;;;;;;5011046;28;20045;-78
2023/06/22 10:06:07;;;;;;;12.25;10.95;;;25.40;99.90;;;;;;5007150;28;20042;-77
2023/06/22 10:08:33;;;;;;;11.57;10.40;;;25.40;99.90;;;;;;5032601;28;20155;-77
2023/06/22 10:10:59;;;;;;;11.35;9.25;;;25.40;99.90;;;;;;5029110;28;20049;-77
2023/06/22 10:13:24;;;;;;;10.35;9.35;;;25.50;99.90;;;;;;5000996;28;20049;-77
2023/06/22 10:15:51;;;;;;;12.80;9.73;;;25.60;99.90;;;;;;5006160;28;20111;-77
2023/06/22 10:18:21;;;;;;;11.63;9.50;;;25.50;99.20;;;;;;5037236;28;20049;-77
2023/06/22 10:20:51;;;;;;;12.18;10.15;;;25.60;99.70;;;;;;5024599;28;20051;-77
2023/06/22 10:23:17;;;;;;;11.32;10.02;;;25.70;99.30;;;;;;5010192;28;20366;-77
2023/06/22 10:25:43;;;;;;;12.18;10.57;;;25.70;99.50;;;;;;5021824;28;20474;-77
2023/06/22 10:28:09;;;;;;;11.52;10.32;;;25.80;99.10;;;;;;5003246;28;20045;-77
2023/06/22 10:30:34;;;;;;;11.70;10.43;;;25.80;99.10;;;;;;5019989;28;20589;-79
2023/06/22 10:33:00;;;;;;;13.50;10.18;;;25.80;99.30;;;;;;5036380;28;20143;-77
2023/06/22 10:35:26;;;;;;;11.75;10.55;;;25.90;99.50;;;;;;5035100;28;20381;-78
2023/06/22 10:37:52;;;;;;;12.00;10.80;;;25.80;99.50;;;;;;5020870;28;20359;-77
2023/06/22 10:40:18;;;;;;;12.18;10.93;;;25.80;99.20;;;;;;4997363;28;20517;-77
2023/06/22 10:42:45;;;;;;;12.18;10.88;;;25.80;99.30;;;;;;4992700;28;20453;-77
2023/06/22 10:45:11;;;;;;;12.65;10.85;;;25.80;99.50;;;;;;4994982;28;20148;-78
2023/06/22 10:47:37;;;;;;;10.98;9.98;;;25.80;99.40;;;;;;5023823;28;20135;-78
2023/06/22 10:50:03;;;;;;;11.82;10.63;;;25.80;99.40;;;;;;5021834;28;20046;-78
2023/06/22 10:52:29;;;;;;;13.32;10.77;;;25.90;99.60;;;;;;5028867;28;20220;-78
2023/06/22 10:54:55;;;;;;;12.35;11.00;;;25.90;99.40;;;;;;5048562;28;20689;-78
2023/06/22 10:57:21;;;;;;;13.68;10.82;;;25.90;99.40;;;;;;5037729;28;20505;-78
2023/06/22 10:59:47;;;;;;;10.63;8.88;;;26.10;99.80;;;;;;5044847;28;20049;-79
2023/06/22 11:02:13;;;;;;;9.57;8.60;;;26.30;98.50;;;;;;5022713;28;20545;-79
2023/06/22 11:04:39;;;;;;;9.23;7.97;;;26.50;97.10;;;;;;5026300;28;20135;-79
2023/06/22 11:07:05;;;;;;;9.05;8.10;;;26.60;97.20;;;;;;5028295;28;20055;-78
2023/06/22 11:09:31;;;;;;;9.00;8.10;;;26.70;96.50;;;;;;5028970;28;20053;-79
2023/06/22 11:11:58;;;;;;;8.73;7.82;;;26.70;96.90;;;;;;5023563;28;20130;-78
2023/06/22 11:14:25;;;;;;;10.40;8.77;;;27.00;96.70;;;;;;5029076;28;20072;-79
2023/06/22 11:16:50;;;;;;;10.60;8.75;;;27.00;96.60;;;;;;5002435;28;20132;-78
2023/06/22 11:19:16;;;;;;;9.63;8.02;;;27.10;96.30;;;;;;5010579;28;21025;-78
2023/06/22 11:21:42;;;;;;;9.77;8.30;;;27.20;96.30;;;;;;5003263;28;20490;-78
2023/06/22 11:24:08;;;;;;;9.57;8.07;;;27.30;96.50;;;;;;5041580;28;20133;-78
2023/06/22 11:26:34;;;;;;;9.55;8.65;;;27.30;96.20;;;;;;5025502;28;20402;-79
2023/06/22 11:29:07;;;;;;;9.38;8.48;;;27.50;96.00;;;;;;5033530;28;20130;-79
2023/06/22 11:31:35;;;;;;;9.60;8.25;;;27.50;95.80;;;;;;5027298;28;20051;-79
2023/06/22 11:34:01;;;;;;;9.90;8.45;;;27.60;95.70;;;;;;5004848;28;20068;-79
2023/06/22 11:36:27;;;;;;;9.23;8.07;;;27.70;95.40;;;;;;5028039;28;20474;-79
2023/06/22 11:38:52;;;;;;;13.48;8.98;;;27.70;95.60;;;;;;5029092;28;20052;-79
2023/06/22 11:41:18;;;;;;;10.63;8.23;;;27.80;95.10;;;;;;5026427;28;20077;-79
2023/06/22 11:43:44;;;;;;;9.13;8.23;;;27.60;94.50;;;;;;5041417;28;20044;-79
2023/06/22 11:46:10;;;;;;;10.45;7.93;;;27.60;95.50;;;;;;5021505;28;20060;-79
2023/06/22 11:48:36;;;;;;;10.20;7.80;;;27.60;95.80;;;;;;5020478;28;20114;-79
2023/06/22 11:51:03;;;;;;;10.05;9.00;;;27.70;95.50;;;;;;4993460;28;20113;-80
2023/06/22 11:53:29;;;;;;;9.60;8.68;;;27.80;95.50;;;;;;5017997;28;20064;-79
2023/06/22 11:55:55;;;;;;;9.02;8.10;;;27.90;94.20;;;;;;4997075;28;20430;-79
2023/06/22 11:58:21;;;;;;;9.10;8.20;;;27.90;95.00;;;;;;5041349;28;20103;-79
2023/06/22 12:00:47;;;;;;;11.48;9.48;;;28.00;94.90;;;;;;5015648;28;20048;-79
2023/06/22 12:03:14;;;;;;;9.25;8.07;;;28.10;94.50;;;;;;4998234;28;20076;-79
2023/06/22 12:05:40;;;;;;;9.38;7.88;;;28.10;94.40;;;;;;4998364;28;20567;-79
2023/06/22 12:08:06;;;;;;;9.85;7.78;;;28.20;94.80;;;;;;5039310;28;20059;-78
2023/06/22 12:10:33;;;;;;;11.07;7.38;;;28.30;94.20;;;;;;5042997;28;20040;-78
2023/06/22 12:12:59;;;;;;;8.23;7.43;;;28.30;93.90;;;;;;5043536;28;20478;-79
2023/06/22 12:15:25;;;;;;;9.13;8.20;;;28.30;93.70;;;;;;5024776;28;20537;-78
2023/06/22 12:17:51;;;;;;;9.13;8.23;;;28.20;92.70;;;;;;5012664;28;20481;-78
2023/06/22 12:20:19;;;;;;;9.35;7.78;;;28.20;93.70;;;;;;5028657;28;20045;-79
2023/06/22 12:22:44;;;;;;;8.40;7.45;;;28.40;94.00;;;;;;5014725;28;20048;-78
2023/06/22 12:25:10;;;;;;;9.35;8.38;;;28.70;93.40;;;;;;5022619;28;20051;-79
2023/06/22 12:27:36;;;;;;;14.80;8.07;;;28.80;93.30;;;;;;5032424;28;20528;-78
2023/06/22 12:30:02;;;;;;;9.35;7.85;;;28.80;92.90;;;;;;5039890;28;20052;-78
2023/06/22 12:32:28;;;;;;;9.55;8.27;;;28.70;93.10;;;;;;5021042;28;20052;-78
2023/06/22 12:34:55;;;;;;;9.32;8.23;;;28.60;92.90;;;;;;5023043;28;20445;-78